createdAt,value
2023-01-15T00:01:28.170Z,25.20
2023-01-15T00:03:58.513Z,25.30
2023-01-15T00:06:28.945Z,25.30
2023-01-15T00:08:59.127Z,25.40
2023-01-15T00:11:28.522Z,25.50
2023-01-15T00:13:58.589Z,25.70
2023-01-15T00:16:28.445Z,25.70
2023-01-15T00:18:58.931Z,25.70
2023-01-15T00:21:29.086Z,25.80
2023-01-15T00:24:17.763Z,25.80
2023-01-15T00:27:05.044Z,25.80
2023-01-15T00:29:37.189Z,25.80
2023-01-15T00:32:10.237Z,25.80
2023-01-15T00:34:39.707Z,25.90
2023-01-15T00:37:09.061Z,25.80
2023-01-15T00:39:38.499Z,25.80
2023-01-15T00:42:07.927Z,25.70
2023-01-15T00:44:37.285Z,25.70
2023-01-15T00:47:08.300Z,25.70
2023-01-15T00:49:37.656Z,25.80
2023-01-15T00:52:07.106Z,25.80
2023-01-15T00:54:36.448Z,25.80
2023-01-15T00:57:06.193Z,25.90
2023-01-15T00:59:35.969Z,26.00
2023-01-15T01:02:05.970Z,26.10
2023-01-15T01:04:36.383Z,26.20
2023-01-15T01:07:05.938Z,26.20
2023-01-15T01:09:35.782Z,26.30
2023-01-15T01:12:05.216Z,26.70
2023-01-15T01:14:34.596Z,27.20
2023-01-15T01:17:04.223Z,27.80
2023-01-15T01:19:33.584Z,28.40
2023-01-15T01:22:03.948Z,28.50
2023-01-15T01:24:33.349Z,28.70
2023-01-15T01:27:02.733Z,28.80
2023-01-15T01:29:32.094Z,28.90
2023-01-15T01:32:01.602Z,29.10
2023-01-15T01:34:31.053Z,29.40
2023-01-15T01:37:00.487Z,29.70
2023-01-15T01:39:30.407Z,29.70
2023-01-15T01:41:59.781Z,29.50
2023-01-15T01:44:36.263Z,29.40
2023-01-15T01:47:25.795Z,29.20
2023-01-15T01:49:57.897Z,29.10
2023-01-15T01:52:29.215Z,29.40
2023-01-15T01:54:58.748Z,29.80
2023-01-15T01:57:28.436Z,30.20
2023-01-15T01:59:59.274Z,30.60
2023-01-15T02:02:28.854Z,31.00
2023-01-15T02:04:58.639Z,31.10
2023-01-15T02:07:28.531Z,31.20
2023-01-15T02:09:57.870Z,31.50
2023-01-15T02:12:38.754Z,31.70
2023-01-15T02:15:08.238Z,31.70
2023-01-15T02:17:41.094Z,31.90
2023-01-15T02:20:30.433Z,32.20
2023-01-15T02:23:14.436Z,32.60
2023-01-15T02:26:02.049Z,32.00
2023-01-15T02:28:34.365Z,31.90
2023-01-15T02:31:16.133Z,31.90
2023-01-15T02:33:53.762Z,31.90
2023-01-15T02:36:24.779Z,31.70
2023-01-15T02:38:55.965Z,31.60
2023-01-15T02:41:27.952Z,31.50
2023-01-15T02:43:59.187Z,31.70
2023-01-15T02:46:30.865Z,31.80
2023-01-15T02:49:00.902Z,31.80
2023-01-15T02:51:32.739Z,32.00
2023-01-15T02:54:04.721Z,32.30
2023-01-15T02:56:37.497Z,32.80
2023-01-15T02:59:09.383Z,33.30
2023-01-15T03:02:03.237Z,33.50
2023-01-15T03:04:40.171Z,33.30
2023-01-15T03:07:14.339Z,32.90
2023-01-15T03:09:44.240Z,32.90
2023-01-15T03:12:14.602Z,32.70
2023-01-15T04:04:15.393Z,33.50
2023-01-15T04:06:46.618Z,33.90
2023-01-15T04:09:17.200Z,34.10
2023-01-15T04:11:46.559Z,34.00
2023-01-15T04:14:16.635Z,34.20
2023-01-15T04:16:46.442Z,34.20
2023-01-15T04:19:15.841Z,33.70
2023-01-15T04:21:45.769Z,33.70
2023-01-15T04:24:15.229Z,33.40
2023-01-15T04:26:44.580Z,33.30
2023-01-15T04:29:13.955Z,33.20
2023-01-15T04:31:43.499Z,33.20
2023-01-15T04:34:12.870Z,32.90
2023-01-15T04:36:42.304Z,32.60
2023-01-15T04:39:11.809Z,32.40
2023-01-15T04:41:59.870Z,32.30
2023-01-15T04:44:30.959Z,32.20
2023-01-15T04:47:01.993Z,32.20
2023-01-15T04:49:31.454Z,32.10
2023-01-15T04:52:00.911Z,32.00
2023-01-15T04:54:30.271Z,31.80
2023-01-15T04:56:59.710Z,31.70
2023-01-15T04:59:30.532Z,31.50
2023-01-15T05:02:06.018Z,31.40
2023-01-15T06:42:46.809Z,22.70
2023-01-15T06:45:35.525Z,22.70
2023-01-15T06:48:05.066Z,22.80
2023-01-15T06:50:34.532Z,22.90
2023-01-15T06:53:03.885Z,23.00
2023-01-15T06:55:33.532Z,23.00
2023-01-15T06:58:04.770Z,22.90
2023-01-15T07:00:34.845Z,22.90
2023-01-15T07:03:04.539Z,22.80
2023-01-15T07:05:34.635Z,22.80
2023-01-15T07:08:04.047Z,22.80
2023-01-15T07:10:33.405Z,22.70
2023-01-15T07:13:02.945Z,22.60
2023-01-15T07:15:32.809Z,22.40
2023-01-15T07:18:02.602Z,22.10
2023-01-15T07:20:33.051Z,22.10
2023-01-15T07:23:02.399Z,22.10
2023-01-15T07:25:31.872Z,22.00
2023-01-15T07:28:01.672Z,22.20
2023-01-15T07:30:31.029Z,22.20
2023-01-15T07:33:00.422Z,22.20
2023-01-15T07:35:29.772Z,22.30
2023-01-15T07:37:59.240Z,22.30
2023-01-15T07:40:28.848Z,22.10
2023-01-15T07:43:17.128Z,22.20
2023-01-15T07:46:04.441Z,22.20
2023-01-15T07:48:52.100Z,22.20
2023-01-15T07:51:21.727Z,22.10
2023-01-15T07:53:52.141Z,22.10
2023-01-15T07:56:21.496Z,21.90
2023-01-15T07:58:52.995Z,21.90
2023-01-15T08:01:23.442Z,21.90
2023-01-15T08:03:53.019Z,21.80
2023-01-15T08:06:22.363Z,21.80
2023-01-15T08:08:52.745Z,21.90
2023-01-15T08:11:40.456Z,21.80
2023-01-15T08:14:29.294Z,21.80
2023-01-15T08:16:58.909Z,21.80
2023-01-15T08:19:31.558Z,21.80
2023-01-15T08:22:04.116Z,21.80
2023-01-15T08:24:33.871Z,21.80
2023-01-15T08:27:03.302Z,21.80
2023-01-15T08:29:33.253Z,21.70
2023-01-15T08:41:03.843Z,21.40
2023-01-15T08:43:35.198Z,21.30
2023-01-15T08:46:06.159Z,21.30
2023-01-15T08:48:35.853Z,21.20
2023-01-15T08:51:09.091Z,21.20
2023-01-15T08:53:38.588Z,21.10
2023-01-15T08:56:14.488Z,21.20
2023-01-15T08:58:45.380Z,21.20
2023-01-15T09:01:17.552Z,21.20
2023-01-15T09:03:46.953Z,21.20
2023-01-15T09:06:16.395Z,21.30
2023-01-15T09:08:46.354Z,21.20
2023-01-15T09:11:15.748Z,21.10
2023-01-15T09:13:45.136Z,21.00
2023-01-15T09:16:15.274Z,21.10
2023-01-15T09:18:45.380Z,21.20
2023-01-15T09:21:14.991Z,21.10
2023-01-15T09:23:44.330Z,21.10
2023-01-15T09:26:32.292Z,21.10
2023-01-15T09:29:02.193Z,21.00
2023-01-15T09:31:32.877Z,20.90
2023-01-15T09:34:02.766Z,20.80
2023-01-15T09:36:34.251Z,20.90
2023-01-15T09:39:04.483Z,20.90
2023-01-15T11:45:39.316Z,20.60
2023-01-15T11:48:36.947Z,20.60
2023-01-15T11:51:15.720Z,20.60
2023-01-15T11:53:57.331Z,20.60
2023-01-15T11:56:28.186Z,20.50
2023-01-15T11:58:58.991Z,20.50
2023-01-15T12:01:36.741Z,20.60
2023-01-15T12:04:10.097Z,20.50
2023-01-15T12:06:42.533Z,20.50
2023-01-15T12:09:34.969Z,20.50
2023-01-15T12:12:12.940Z,20.60
2023-01-15T12:14:58.005Z,20.60
2023-01-15T12:17:37.536Z,20.60
2023-01-15T12:20:16.403Z,20.50
2023-01-15T12:22:58.737Z,20.50
2023-01-15T12:25:41.239Z,20.50
2023-01-15T12:28:20.558Z,20.50
2023-01-15T12:31:13.856Z,20.50
2023-01-15T12:33:52.278Z,20.40
2023-01-15T12:36:23.304Z,20.40
2023-01-15T12:39:02.760Z,20.40
2023-01-15T12:42:08.929Z,20.40
2023-01-15T16:24:23.107Z,19.30
2023-01-15T16:27:03.819Z,19.30
2023-01-15T16:29:37.051Z,19.30
2023-01-15T16:32:13.961Z,19.30
2023-01-15T16:34:44.164Z,19.30
2023-01-15T16:37:40.610Z,19.30
2023-01-15T16:40:12.070Z,19.30
2023-01-15T16:42:44.235Z,19.30
2023-01-15T16:45:26.746Z,19.30
2023-01-15T16:48:24.932Z,19.30
2023-01-15T16:50:54.628Z,19.30
2023-01-15T16:53:44.032Z,19.30
2023-01-15T16:56:48.876Z,19.20
2023-01-15T16:59:30.803Z,19.30
2023-01-15T17:02:12.536Z,19.20
2023-01-15T17:04:43.326Z,19.30
2023-01-15T17:07:16.224Z,19.30
2023-01-15T17:09:47.366Z,19.30
2023-01-15T17:12:43.814Z,19.30
2023-01-15T17:15:33.394Z,19.20
2023-01-15T17:18:21.480Z,19.20
2023-01-15T17:20:50.961Z,19.20
2023-01-15T17:23:23.868Z,19.20
2023-01-15T17:25:53.740Z,19.20
2023-01-15T17:28:26.160Z,19.20
2023-01-15T17:30:59.639Z,19.20
2023-01-15T17:33:29.365Z,19.20
2023-01-15T17:36:02.210Z,19.30
2023-01-15T17:38:31.739Z,19.30
2023-01-15T17:41:01.398Z,19.20
2023-01-15T17:43:30.790Z,19.20
2023-01-15T17:46:02.624Z,19.20
2023-01-15T17:48:32.202Z,19.20
2023-01-15T17:51:03.799Z,19.20
2023-01-15T18:09:28.467Z,19.20
2023-01-15T18:11:57.827Z,19.10
2023-01-15T18:14:27.692Z,19.10
2023-01-15T18:16:57.049Z,19.10
2023-01-15T18:19:26.827Z,19.20
2023-01-15T18:21:56.746Z,19.10
2023-01-15T18:24:26.198Z,19.20
2023-01-15T18:26:57.462Z,19.20
2023-01-15T18:29:27.225Z,19.20
2023-01-15T18:31:56.990Z,19.20
2023-01-15T18:34:26.386Z,19.20
2023-01-15T18:36:55.751Z,19.20
2023-01-15T18:39:25.260Z,19.20
2023-01-15T18:41:54.723Z,19.20
2023-01-15T18:44:43.163Z,19.20
2023-01-15T18:47:14.134Z,19.20
2023-01-15T18:49:44.911Z,19.20
2023-01-15T18:52:33.430Z,19.20
2023-01-15T18:55:03.360Z,19.20
2023-01-15T18:57:34.362Z,19.30
2023-01-15T19:00:04.466Z,19.20
2023-01-15T19:02:33.899Z,19.20
2023-01-15T19:05:03.677Z,19.20
2023-01-15T19:07:34.307Z,19.30
